Time;durP1;ratioP1;P1;durP2;ratioP2;P2;SDS_P1;SDS_P2;PMS_P1;PMS_P2;Temp;Humidity;BMP_temperature;BMP_pressure;BME280_temperature;BME280_humidity;BME280_pressure;Samples;Min_cycle;Max_cycle;Signal;HPM_P1;HPM_P2
2023/01/30 00:01:20;;;;;;;7.90;5.47;;;2.40;99.90;;;;;;4912395;29;20187;-70
2023/01/30 00:03:46;;;;;;;10.30;6.33;;;2.40;99.90;;;;;;4908791;29;20286;-70
2023/01/30 00:06:12;;;;;;;7.93;5.57;;;2.30;99.90;;;;;;4925407;23;20533;-79
2023/01/30 00:08:38;;;;;;;7.07;6.30;;;2.30;99.90;;;;;;4897806;29;20416;-71
2023/01/30 00:11:09;;;;;;;11.23;6.17;;;2.30;99.90;;;;;;4903163;29;20463;-72
2023/01/30 00:13:36;;;;;;;9.87;5.63;;;2.30;99.90;;;;;;4897978;29;20481;-72
2023/01/30 00:16:02;;;;;;;13.30;8.57;;;2.30;99.90;;;;;;4892962;29;20409;-74
2023/01/30 00:18:27;;;;;;;17.00;7.40;;;2.30;99.90;;;;;;4891922;29;20506;-73
2023/01/30 00:21:05;;;;;;;9.30;7.30;;;2.30;99.90;;;;;;4899233;29;20479;-73
2023/01/30 00:23:32;;;;;;;11.00;6.50;;;2.30;99.90;;;;;;4896444;29;20419;-71
2023/01/30 00:25:58;;;;;;;11.03;8.20;;;2.30;99.90;;;;;;4898835;29;20404;-73
2023/01/30 00:28:24;;;;;;;7.17;5.60;;;2.30;99.90;;;;;;4901142;29;20416;-74
2023/01/30 00:30:51;;;;;;;12.67;7.17;;;2.30;99.90;;;;;;4890357;29;20613;-74
2023/01/30 00:33:17;;;;;;;11.57;7.63;;;2.30;99.90;;;;;;4900718;29;20947;-72
2023/01/30 00:35:44;;;;;;;12.50;6.50;;;2.30;99.90;;;;;;4885282;29;20790;-70
2023/01/30 00:38:10;;;;;;;10.00;6.80;;;2.30;99.90;;;;;;4896501;29;20993;-72
2023/01/30 00:40:35;;;;;;;9.23;6.50;;;2.30;99.90;;;;;;4901710;29;20448;-71
2023/01/30 00:48:31;;;;;;;10.63;7.23;;;2.40;99.90;;;;;;4882310;29;20417;-72
2023/01/30 00:50:56;;;;;;;8.77;5.30;;;2.30;99.90;;;;;;4892537;29;20980;-72
2023/01/30 00:53:22;;;;;;;9.37;6.67;;;2.30;99.90;;;;;;4889565;29;20433;-72
2023/01/30 00:55:51;;;;;;;12.70;7.53;;;2.30;99.90;;;;;;4895721;29;20176;-74
2023/01/30 00:58:17;;;;;;;10.80;6.83;;;2.40;99.90;;;;;;4896205;29;20420;-71
2023/01/30 01:00:43;;;;;;;10.57;6.43;;;2.30;99.90;;;;;;4888506;29;20962;-71
2023/01/30 01:03:08;;;;;;;13.33;6.37;;;2.30;99.90;;;;;;4896750;29;20416;-75
2023/01/30 01:05:34;;;;;;;15.73;8.40;;;2.30;99.90;;;;;;4896536;29;20180;-72
2023/01/30 01:08:00;;;;;;;10.83;6.97;;;2.30;99.90;;;;;;4904959;29;20706;-73
2023/01/30 01:10:26;;;;;;;13.90;8.67;;;2.40;99.90;;;;;;4890950;29;20188;-72
2023/01/30 01:12:51;;;;;;;11.77;7.00;;;2.30;99.90;;;;;;4896596;29;20448;-73
2023/01/30 01:15:17;;;;;;;14.90;7.70;;;2.30;99.90;;;;;;4896632;29;20224;-76
2023/01/30 01:17:43;;;;;;;12.03;8.40;;;2.30;99.90;;;;;;4896852;29;20214;-75
2023/01/30 01:20:09;;;;;;;12.17;7.97;;;2.30;99.90;;;;;;4897026;29;20176;-72
2023/01/30 01:22:35;;;;;;;9.67;7.33;;;2.30;99.90;;;;;;4889898;29;20188;-72
2023/01/30 01:25:01;;;;;;;8.57;6.53;;;2.30;99.90;;;;;;4903707;29;20412;-71
2023/01/30 01:27:28;;;;;;;17.57;8.47;;;2.30;99.90;;;;;;4901440;29;20506;-71
2023/01/30 01:29:53;;;;;;;10.73;6.80;;;2.30;99.90;;;;;;4902112;29;21135;-72
2023/01/30 01:32:20;;;;;;;14.20;9.10;;;2.30;99.90;;;;;;4889426;29;20498;-71
2023/01/30 01:34:45;;;;;;;15.90;9.60;;;2.30;99.90;;;;;;4881032;29;20181;-75
2023/01/30 01:37:11;;;;;;;14.17;8.17;;;2.30;99.90;;;;;;4888640;29;20441;-71
2023/01/30 01:42:25;;;;;;;10.40;5.87;;;2.30;99.90;;;;;;4897139;29;20430;-74
2023/01/30 01:45:01;;;;;;;9.80;7.00;;;2.30;99.90;;;;;;4893529;29;20414;-70
2023/01/30 01:47:28;;;;;;;11.87;8.13;;;2.30;99.90;;;;;;4897533;29;20432;-70
2023/01/30 01:49:54;;;;;;;11.57;7.10;;;2.30;99.90;;;;;;4898794;29;20899;-72
2023/01/30 01:52:20;;;;;;;14.40;9.30;;;2.30;99.90;;;;;;4891038;29;20805;-70
2023/01/30 01:54:51;;;;;;;17.53;7.90;;;2.40;99.90;;;;;;4898467;29;20408;-73
2023/01/30 01:57:33;;;;;;;15.73;8.77;;;2.30;99.90;;;;;;4898381;29;20512;-70
2023/01/30 02:00:12;;;;;;;9.17;6.20;;;2.40;99.90;;;;;;4898517;29;20915;-71
2023/01/30 02:02:44;;;;;;;12.40;9.50;;;2.40;99.90;;;;;;4903303;29;20761;-73
2023/01/30 02:05:13;;;;;;;20.30;8.90;;;2.40;99.90;;;;;;4902007;29;20442;-72
2023/01/30 02:08:01;;;;;;;10.70;7.97;;;2.30;99.90;;;;;;4897443;29;20463;-73
2023/01/30 02:10:40;;;;;;;13.13;8.00;;;2.20;99.90;;;;;;4901837;29;20467;-72
2023/01/30 02:13:05;;;;;;;12.30;8.23;;;2.10;99.90;;;;;;4897136;29;20428;-71
2023/01/30 02:15:32;;;;;;;13.93;9.10;;;2.10;99.90;;;;;;4911039;29;20438;-70
2023/01/30 02:17:58;;;;;;;12.17;7.53;;;2.00;99.90;;;;;;4897923;29;20211;-71
2023/01/30 02:20:52;;;;;;;9.73;7.67;;;2.00;99.90;;;;;;4898031;29;20397;-71
2023/01/30 02:23:36;;;;;;;15.90;9.47;;;2.00;99.90;;;;;;4895433;29;20184;-72
2023/01/30 02:26:20;;;;;;;14.00;8.60;;;2.00;99.90;;;;;;4898822;29;20931;-72
2023/01/30 02:29:01;;;;;;;13.20;8.30;;;2.00;99.90;;;;;;4891445;29;20393;-72
2023/01/30 02:31:46;;;;;;;13.27;9.67;;;2.00;99.90;;;;;;4897795;29;20493;-74
2023/01/30 02:34:30;;;;;;;14.63;8.67;;;2.00;99.90;;;;;;4901742;29;20888;-70
2023/01/30 02:37:33;;;;;;;17.63;10.73;;;2.00;99.90;;;;;;4893024;29;20420;-70
2023/01/30 02:40:22;;;;;;;13.03;9.00;;;2.00;99.90;;;;;;4898861;29;20417;-74
2023/01/30 02:43:15;;;;;;;15.70;11.23;;;2.00;99.90;;;;;;4891299;29;20469;-72
2023/01/30 02:45:52;;;;;;;17.57;8.93;;;2.00;99.90;;;;;;4890405;29;20408;-72
2023/01/30 02:48:29;;;;;;;16.33;9.10;;;2.00;99.90;;;;;;4897497;29;20424;-73
2023/01/30 02:51:01;;;;;;;12.47;8.90;;;2.00;99.90;;;;;;4897569;29;20530;-72
2023/01/30 02:53:32;;;;;;;18.47;11.10;;;1.90;99.90;;;;;;4903586;29;20421;-70
2023/01/30 02:55:58;;;;;;;13.57;9.50;;;1.80;99.90;;;;;;4896297;29;20929;-72
2023/01/30 02:58:25;;;;;;;20.20;10.73;;;1.80;99.90;;;;;;4904038;29;20419;-70
2023/01/30 03:01:05;;;;;;;14.70;9.17;;;1.80;99.90;;;;;;4903519;29;20497;-71
2023/01/30 03:03:46;;;;;;;14.77;9.00;;;1.80;99.90;;;;;;4901878;29;20420;-71
2023/01/30 03:06:38;;;;;;;16.73;10.40;;;1.90;99.90;;;;;;4897057;29;20432;-75
2023/01/30 03:09:25;;;;;;;13.40;9.63;;;1.90;99.90;;;;;;4898989;29;20436;-71
2023/01/30 03:12:06;;;;;;;15.23;8.57;;;1.90;99.90;;;;;;4892641;29;20463;-71
2023/01/30 03:14:44;;;;;;;17.73;10.83;;;1.90;99.90;;;;;;4905437;29;21027;-75
2023/01/30 03:17:12;;;;;;;20.90;11.03;;;2.00;99.90;;;;;;4896816;29;20498;-74
2023/01/30 03:19:37;;;;;;;13.80;9.77;;;2.00;99.90;;;;;;4897384;29;20420;-71
2023/01/30 03:22:03;;;;;;;15.83;9.37;;;2.00;99.90;;;;;;4900983;29;20860;-70
2023/01/30 03:24:29;;;;;;;14.57;9.53;;;2.00;99.90;;;;;;4897331;29;20301;-70
2023/01/30 03:27:07;;;;;;;19.97;10.50;;;2.10;99.90;;;;;;4896504;29;21009;-71
2023/01/30 03:29:33;;;;;;;17.70;10.40;;;2.10;99.90;;;;;;4898658;29;20280;-72
2023/01/30 03:31:59;;;;;;;22.87;10.30;;;2.20;99.90;;;;;;4901531;29;20475;-73
2023/01/30 03:34:24;;;;;;;15.77;9.23;;;2.20;99.90;;;;;;4896639;29;20395;-71
2023/01/30 03:36:50;;;;;;;15.33;9.90;;;2.20;99.90;;;;;;4903344;29;20192;-71
2023/01/30 03:39:15;;;;;;;15.53;9.57;;;2.30;99.90;;;;;;4899670;29;20195;-71
2023/01/30 03:41:41;;;;;;;16.80;10.23;;;2.30;99.90;;;;;;4901798;29;20251;-71
2023/01/30 03:44:07;;;;;;;15.47;10.40;;;2.30;99.90;;;;;;4895968;29;20205;-73
2023/01/30 03:46:33;;;;;;;15.13;9.00;;;2.30;99.90;;;;;;4896193;29;20785;-74
2023/01/30 03:48:58;;;;;;;16.93;10.20;;;2.30;99.90;;;;;;4892890;29;20540;-70
2023/01/30 03:51:24;;;;;;;15.57;10.00;;;2.30;99.90;;;;;;4894408;29;20773;-72
2023/01/30 03:53:50;;;;;;;13.67;8.97;;;2.30;99.90;;;;;;4899839;29;20172;-72
2023/01/30 03:56:15;;;;;;;16.63;9.73;;;2.30;99.90;;;;;;4896115;29;20332;-72
2023/01/30 03:58:41;;;;;;;21.07;10.90;;;2.30;99.90;;;;;;4888697;29;20180;-71
2023/01/30 04:01:06;;;;;;;16.50;9.20;;;2.30;99.90;;;;;;4892870;29;20195;-71
2023/01/30 04:03:32;;;;;;;14.33;8.47;;;2.30;99.90;;;;;;4881862;29;20172;-72
2023/01/30 04:05:58;;;;;;;15.37;10.97;;;2.40;99.90;;;;;;4899097;29;20203;-72
2023/01/30 04:08:24;;;;;;;17.37;10.10;;;2.40;99.90;;;;;;4888447;29;20420;-72
2023/01/30 04:10:49;;;;;;;15.23;9.00;;;2.40;99.90;;;;;;4896244;29;20168;-71
2023/01/30 04:13:15;;;;;;;13.53;8.57;;;2.40;99.90;;;;;;4903330;29;20188;-71
2023/01/30 04:15:40;;;;;;;14.27;9.60;;;2.50;99.90;;;;;;4897937;29;20532;-72
2023/01/30 04:18:06;;;;;;;16.70;9.43;;;2.50;99.90;;;;;;4900849;29;20192;-73
2023/01/30 04:20:32;;;;;;;14.03;9.40;;;2.50;99.90;;;;;;4890642;29;20180;-71
2023/01/30 04:22:57;;;;;;;11.33;8.33;;;2.50;99.90;;;;;;4889781;29;20179;-72
2023/01/30 04:25:23;;;;;;;17.63;9.63;;;2.60;99.90;;;;;;4895062;29;20180;-71
2023/01/30 04:27:49;;;;;;;11.33;8.73;;;2.60;99.90;;;;;;4896555;29;20240;-72
2023/01/30 04:30:14;;;;;;;14.57;8.23;;;2.70;99.90;;;;;;4886893;29;20184;-73
2023/01/30 04:32:40;;;;;;;17.10;10.63;;;2.70;99.90;;;;;;4896884;29;20200;-72
2023/01/30 04:35:06;;;;;;;15.07;9.90;;;2.80;99.90;;;;;;4892704;29;20609;-72
2023/01/30 04:37:32;;;;;;;11.27;8.40;;;2.80;99.90;;;;;;4904499;29;20247;-72
2023/01/30 04:39:57;;;;;;;16.63;8.80;;;2.80;99.90;;;;;;4901301;29;20403;-72
2023/01/30 04:42:23;;;;;;;14.57;9.27;;;2.90;99.90;;;;;;4904898;29;20176;-72
2023/01/30 04:44:48;;;;;;;11.73;8.20;;;2.90;99.90;;;;;;4889522;29;20296;-71
2023/01/30 04:47:14;;;;;;;17.40;9.40;;;2.90;99.90;;;;;;4905736;29;20247;-71
2023/01/30 04:49:40;;;;;;;14.90;9.83;;;2.90;99.90;;;;;;4897352;29;20168;-71
2023/01/30 04:52:06;;;;;;;14.80;9.20;;;2.90;99.90;;;;;;4888768;29;20474;-73
2023/01/30 04:54:31;;;;;;;14.10;10.17;;;2.90;99.90;;;;;;4895023;29;20187;-73
2023/01/30 04:56:57;;;;;;;15.17;9.60;;;2.90;99.90;;;;;;4900190;29;20691;-76
2023/01/30 04:59:23;;;;;;;20.20;10.50;;;2.90;99.90;;;;;;4906526;29;20255;-71
2023/01/30 05:01:49;;;;;;;16.03;9.70;;;2.90;99.90;;;;;;4899715;29;20228;-73
2023/01/30 05:04:14;;;;;;;13.47;9.13;;;2.90;99.90;;;;;;4891695;29;20488;-73
2023/01/30 05:06:40;;;;;;;16.60;9.03;;;2.80;99.90;;;;;;4910850;29;20215;-72
2023/01/30 05:09:05;;;;;;;13.43;9.13;;;2.80;99.90;;;;;;4894176;29;20172;-73
2023/01/30 05:11:31;;;;;;;13.50;9.10;;;2.80;99.90;;;;;;4906359;29;20219;-71
2023/01/30 05:13:57;;;;;;;16.43;9.90;;;2.70;99.90;;;;;;4893281;29;20165;-72
2023/01/30 05:16:24;;;;;;;15.30;9.73;;;2.70;99.90;;;;;;4906804;29;20211;-72
2023/01/30 05:18:50;;;;;;;12.60;9.60;;;2.70;99.90;;;;;;4899242;29;20175;-72
2023/01/30 05:21:19;;;;;;;14.97;8.23;;;2.60;99.90;;;;;;4896451;29;20421;-72
2023/01/30 05:23:45;;;;;;;14.07;10.30;;;2.60;99.90;;;;;;4898956;29;20416;-72
2023/01/30 05:26:12;;;;;;;16.50;9.90;;;2.60;99.90;;;;;;4905309;29;20442;-72
2023/01/30 05:28:38;;;;;;;19.77;10.73;;;2.60;99.90;;;;;;4888519;29;20792;-71
2023/01/30 05:31:05;;;;;;;23.13;11.83;;;2.60;99.90;;;;;;4897154;29;20455;-69
2023/01/30 05:33:31;;;;;;;16.20;9.77;;;2.60;99.90;;;;;;4896989;29;20219;-70
2023/01/30 05:35:58;;;;;;;17.63;8.97;;;2.60;99.90;;;;;;4899395;29;20412;-71
2023/01/30 05:38:24;;;;;;;16.90;10.80;;;2.60;99.90;;;;;;4905639;29;20170;-73
2023/01/30 05:41:03;;;;;;;19.83;10.30;;;2.60;99.90;;;;;;4893748;29;20418;-70
2023/01/30 05:43:29;;;;;;;12.07;8.53;;;2.60;99.90;;;;;;4888546;29;20413;-71
2023/01/30 05:45:56;;;;;;;18.10;10.37;;;2.60;99.90;;;;;;4893054;29;20409;-72
2023/01/30 05:48:23;;;;;;;16.10;9.80;;;2.60;99.90;;;;;;4889009;29;20416;-72
2023/01/30 05:50:52;;;;;;;16.77;9.10;;;2.60;99.90;;;;;;4898076;29;20927;-71
2023/01/30 05:53:19;;;;;;;16.13;9.57;;;2.60;99.90;;;;;;4905165;29;20421;-73
2023/01/30 05:55:45;;;;;;;13.70;10.47;;;2.60;99.90;;;;;;4903398;29;20480;-75
2023/01/30 05:58:11;;;;;;;16.23;10.03;;;2.60;99.90;;;;;;4890625;29;20877;-71
2023/01/30 06:00:37;;;;;;;16.53;9.93;;;2.60;99.90;;;;;;4890794;29;20183;-71
2023/01/30 06:03:02;;;;;;;17.13;10.67;;;2.60;99.90;;;;;;4901134;29;20405;-73
2023/01/30 06:05:28;;;;;;;17.30;9.30;;;2.60;99.90;;;;;;4902435;29;20439;-72
2023/01/30 06:07:53;;;;;;;17.30;9.60;;;2.60;99.90;;;;;;4886321;29;20208;-72
2023/01/30 06:10:19;;;;;;;16.90;10.13;;;2.60;99.90;;;;;;4916401;23;20240;-69
2023/01/30 06:12:45;;;;;;;13.93;8.93;;;2.70;99.90;;;;;;4894328;29;20208;-69
2023/01/30 06:15:11;;;;;;;17.77;11.37;;;2.70;99.90;;;;;;4884530;29;20391;-70
2023/01/30 06:17:36;;;;;;;20.37;10.60;;;2.70;99.90;;;;;;4879269;29;20281;-70
2023/01/30 06:20:02;;;;;;;17.80;10.80;;;2.70;99.90;;;;;;4865682;29;20699;-71
2023/01/30 06:22:28;;;;;;;17.97;12.33;;;2.80;99.90;;;;;;4868479;29;20203;-71
2023/01/30 06:24:54;;;;;;;17.93;10.93;;;2.80;99.90;;;;;;4866463;29;20441;-71
2023/01/30 06:27:19;;;;;;;17.23;9.83;;;2.80;99.90;;;;;;4858835;29;20669;-71
2023/01/30 06:29:45;;;;;;;20.93;10.27;;;2.90;99.90;;;;;;4867507;29;20220;-71
2023/01/30 06:32:10;;;;;;;16.80;10.07;;;2.90;99.90;;;;;;4861261;29;20209;-71
2023/01/30 06:34:36;;;;;;;15.47;9.30;;;2.90;99.90;;;;;;4859688;29;20185;-72
2023/01/30 06:37:01;;;;;;;15.17;9.67;;;2.90;99.90;;;;;;4862664;29;20186;-70
2023/01/30 06:39:27;;;;;;;15.30;10.20;;;3.00;99.90;;;;;;4862545;29;20583;-70
2023/01/30 06:41:53;;;;;;;16.07;10.50;;;3.00;99.90;;;;;;4864975;29;20186;-69
2023/01/30 06:44:18;;;;;;;16.27;9.23;;;3.00;99.90;;;;;;4859776;29;20188;-71
2023/01/30 06:46:44;;;;;;;17.63;10.80;;;3.10;99.90;;;;;;4860230;29;20180;-69
2023/01/30 06:49:09;;;;;;;13.30;8.90;;;3.20;99.90;;;;;;4860178;29;20201;-70
2023/01/30 06:51:35;;;;;;;17.60;10.33;;;3.20;99.90;;;;;;4860141;29;20684;-69
2023/01/30 06:54:01;;;;;;;12.50;10.10;;;3.20;99.90;;;;;;4862650;29;20173;-71
2023/01/30 06:56:26;;;;;;;13.20;9.90;;;3.30;99.90;;;;;;4859855;29;20204;-68
2023/01/30 06:58:52;;;;;;;17.90;8.70;;;3.40;99.90;;;;;;4860695;29;20225;-70
2023/01/30 07:01:18;;;;;;;14.63;9.10;;;3.40;99.90;;;;;;4864054;29;20661;-70
2023/01/30 07:03:43;;;;;;;15.60;9.10;;;3.40;99.90;;;;;;4860076;29;20177;-69
2023/01/30 07:06:09;;;;;;;17.07;8.87;;;3.50;99.90;;;;;;4861567;29;20505;-70
2023/01/30 07:08:35;;;;;;;15.20;8.67;;;3.50;99.90;;;;;;4862709;29;20188;-65
2023/01/30 07:11:00;;;;;;;16.53;7.30;;;3.60;99.90;;;;;;4866919;29;20732;-70
2023/01/30 07:13:26;;;;;;;15.33;9.87;;;3.60;99.90;;;;;;4863292;29;20583;-71
2023/01/30 07:15:52;;;;;;;11.30;8.10;;;3.70;99.90;;;;;;4854227;29;20202;-70
2023/01/30 07:18:18;;;;;;;12.50;9.30;;;3.70;99.90;;;;;;4859354;29;20475;-70
2023/01/30 07:20:48;;;;;;;10.67;6.70;;;3.70;99.90;;;;;;4866980;29;20541;-70
2023/01/30 07:23:14;;;;;;;10.20;8.10;;;3.70;99.90;;;;;;4862881;29;20181;-72
2023/01/30 07:25:39;;;;;;;10.70;7.70;;;3.70;99.90;;;;;;4864211;29;20421;-71
2023/01/30 07:28:05;;;;;;;12.93;8.30;;;3.80;99.90;;;;;;4859999;29;20418;-70
2023/01/30 07:30:34;;;;;;;12.33;7.43;;;3.80;99.90;;;;;;4857890;29;20292;-69
2023/01/30 07:33:01;;;;;;;10.07;7.20;;;3.80;99.90;;;;;;4865802;29;20211;-69
2023/01/30 07:35:29;;;;;;;12.53;7.10;;;3.90;99.90;;;;;;4860792;29;20453;-70
2023/01/30 07:37:56;;;;;;;11.43;8.60;;;3.90;99.90;;;;;;4859610;29;20453;-70
2023/01/30 07:40:22;;;;;;;15.90;8.70;;;4.00;99.90;;;;;;4859855;29;20527;-69
2023/01/30 07:43:14;;;;;;;9.43;6.30;;;4.00;99.90;;;;;;4863661;29;20858;-70
2023/01/30 07:45:42;;;;;;;8.87;6.20;;;4.10;99.90;;;;;;4859064;29;20918;-70
2023/01/30 07:48:10;;;;;;;11.90;7.80;;;4.10;99.90;;;;;;4857499;29;20426;-72
2023/01/30 07:50:36;;;;;;;9.40;6.00;;;4.10;99.90;;;;;;4859577;29;20914;-70
2023/01/30 07:53:03;;;;;;;10.93;7.07;;;4.20;99.90;;;;;;4859477;29;20557;-69
2023/01/30 07:55:29;;;;;;;13.77;6.90;;;4.20;99.90;;;;;;4859397;29;20182;-69
2023/01/30 07:57:55;;;;;;;7.43;5.80;;;4.20;99.90;;;;;;4859745;29;20455;-70
2023/01/30 08:00:20;;;;;;;9.73;5.80;;;4.30;99.90;;;;;;4860143;29;20206;-70
2023/01/30 08:02:46;;;;;;;7.57;5.37;;;4.20;99.90;;;;;;4859852;29;20185;-71
2023/01/30 08:05:12;;;;;;;10.87;6.77;;;4.30;99.90;;;;;;4862623;29;20467;-70
2023/01/30 08:07:37;;;;;;;7.10;6.40;;;4.30;99.90;;;;;;4860201;29;20261;-69
2023/01/30 08:10:03;;;;;;;9.67;5.83;;;4.30;99.90;;;;;;4859721;29;20236;-71
2023/01/30 08:12:29;;;;;;;9.37;6.30;;;4.30;99.90;;;;;;4857972;29;20253;-70
2023/01/30 08:14:54;;;;;;;9.80;7.07;;;4.30;99.90;;;;;;4861242;29;20445;-69
2023/01/30 08:17:20;;;;;;;7.23;5.50;;;4.40;99.90;;;;;;4859659;29;20711;-70
2023/01/30 08:19:46;;;;;;;8.67;6.23;;;4.40;99.90;;;;;;4859774;29;20691;-69
2023/01/30 08:22:13;;;;;;;7.20;6.13;;;4.40;99.90;;;;;;4862077;29;20188;-70
2023/01/30 08:24:39;;;;;;;10.83;7.13;;;4.40;99.90;;;;;;4852304;29;20189;-70
2023/01/30 08:27:04;;;;;;;7.60;6.23;;;4.40;99.90;;;;;;4859427;29;20529;-70
2023/01/30 08:29:30;;;;;;;9.67;7.20;;;4.40;99.90;;;;;;4861213;29;20212;-70
2023/01/30 08:31:57;;;;;;;7.47;5.33;;;4.50;99.90;;;;;;4862963;29;20621;-70
2023/01/30 08:34:23;;;;;;;9.80;7.13;;;4.50;99.90;;;;;;4862787;29;20185;-69
2023/01/30 08:36:49;;;;;;;5.50;4.90;;;4.60;99.90;;;;;;4867779;29;21054;-69
2023/01/30 08:39:15;;;;;;;8.03;5.50;;;4.60;99.90;;;;;;4861154;29;20450;-69
2023/01/30 08:41:42;;;;;;;8.47;4.73;;;4.60;99.90;;;;;;4862490;29;20185;-69
2023/01/30 08:44:09;;;;;;;10.53;5.07;;;4.70;99.90;;;;;;4863503;29;20190;-69
2023/01/30 08:46:34;;;;;;;7.60;5.70;;;4.60;99.90;;;;;;4862663;29;20434;-69
2023/01/30 08:49:00;;;;;;;7.97;3.87;;;4.60;99.90;;;;;;4861974;29;20517;-69
2023/01/30 08:51:26;;;;;;;7.13;5.27;;;4.60;99.90;;;;;;4861874;29;20295;-69
2023/01/30 08:53:51;;;;;;;9.00;4.53;;;4.70;99.90;;;;;;4860382;29;20653;-69
2023/01/30 08:56:17;;;;;;;5.93;3.80;;;4.70;99.90;;;;;;4862217;29;20181;-70
2023/01/30 08:58:44;;;;;;;8.80;4.87;;;4.70;99.90;;;;;;4858608;29;20540;-69
2023/01/30 09:01:10;;;;;;;6.93;4.70;;;4.70;99.90;;;;;;4855738;29;20287;-68
2023/01/30 09:03:35;;;;;;;7.83;4.60;;;4.80;99.90;;;;;;4862742;29;20944;-69
2023/01/30 09:06:01;;;;;;;6.97;4.67;;;4.80;99.90;;;;;;4860685;29;20184;-69
2023/01/30 09:08:27;;;;;;;5.57;3.70;;;4.80;99.90;;;;;;4861977;29;20668;-69
2023/01/30 09:11:00;;;;;;;6.57;3.40;;;4.90;99.90;;;;;;4863060;29;20221;-69
2023/01/30 09:13:27;;;;;;;4.90;3.60;;;4.90;99.90;;;;;;4870106;29;20842;-69
2023/01/30 09:15:53;;;;;;;7.43;3.93;;;5.00;99.90;;;;;;4862672;29;20482;-68
2023/01/30 09:18:19;;;;;;;4.70;2.80;;;5.00;99.90;;;;;;4861188;29;20422;-69
2023/01/30 09:20:44;;;;;;;4.23;3.83;;;5.00;99.90;;;;;;4861978;29;20441;-69
2023/01/30 09:23:10;;;;;;;6.17;4.17;;;5.10;99.90;;;;;;4862306;29;20425;-68
2023/01/30 09:25:36;;;;;;;6.83;4.10;;;5.10;99.90;;;;;;4865874;29;20224;-69
2023/01/30 09:28:02;;;;;;;6.07;3.33;;;5.30;99.90;;;;;;4861881;29;20611;-69
2023/01/30 09:30:27;;;;;;;6.00;3.83;;;5.30;99.90;;;;;;4862776;29;20477;-68
2023/01/30 09:32:53;;;;;;;4.27;3.43;;;5.30;99.90;;;;;;4860288;29;20201;-71
2023/01/30 09:35:19;;;;;;;6.63;3.77;;;5.30;99.90;;;;;;4861726;29;20237;-67
2023/01/30 09:37:49;;;;;;;5.80;3.80;;;5.30;99.90;;;;;;4861856;29;20673;-68
2023/01/30 09:40:25;;;;;;;5.37;3.97;;;5.30;99.90;;;;;;4862173;29;20198;-69
2023/01/30 09:43:05;;;;;;;6.07;3.30;;;5.30;99.90;;;;;;4861708;29;20883;-69
2023/01/30 09:45:34;;;;;;;5.40;4.20;;;5.30;99.90;;;;;;4861265;29;20744;-69
2023/01/30 09:48:27;;;;;;;7.60;3.50;;;5.40;99.90;;;;;;4859735;29;20921;-69
2023/01/30 09:51:15;;;;;;;8.40;3.40;;;5.50;99.90;;;;;;4859891;29;20470;-69
2023/01/30 09:53:57;;;;;;;4.60;3.33;;;5.60;99.90;;;;;;4861732;29;20832;-69
2023/01/30 09:56:23;;;;;;;4.33;3.03;;;5.60;99.90;;;;;;4861192;29;20413;-68
2023/01/30 09:58:56;;;;;;;2.97;2.77;;;5.70;99.90;;;;;;4859188;29;20787;-68
2023/01/30 10:01:55;;;;;;;8.60;3.20;;;5.70;99.90;;;;;;4860357;29;20491;-69
2023/01/30 10:04:32;;;;;;;9.97;3.10;;;5.80;99.90;;;;;;4859605;29;20470;-69
2023/01/30 10:07:09;;;;;;;6.20;2.37;;;5.90;99.90;;;;;;4855596;29;20438;-69
2023/01/30 10:09:57;;;;;;;3.13;1.60;;;5.90;99.90;;;;;;4861496;29;20565;-70
2023/01/30 10:12:40;;;;;;;4.50;2.30;;;5.90;99.90;;;;;;4861372;29;20482;-69
2023/01/30 10:15:35;;;;;;;6.30;2.27;;;5.80;99.90;;;;;;4860726;29;20430;-69
2023/01/30 10:18:27;;;;;;;4.53;1.87;;;5.90;99.90;;;;;;4860480;29;20743;-69
2023/01/30 10:21:31;;;;;;;3.63;1.70;;;6.00;99.90;;;;;;4860349;29;20836;-69
2023/01/30 10:24:12;;;;;;;3.50;1.93;;;6.00;99.90;;;;;;4861022;29;20505;-68
2023/01/30 10:26:40;;;;;;;2.83;1.43;;;6.00;99.90;;;;;;4853466;29;20411;-68
2023/01/30 10:29:19;;;;;;;1.83;1.63;;;6.10;99.90;;;;;;4860890;29;20457;-68
2023/01/30 10:31:50;;;;;;;8.40;2.50;;;6.20;99.90;;;;;;4856383;29;20983;-69
2023/01/30 10:34:31;;;;;;;3.70;1.70;;;6.20;99.90;;;;;;4860116;29;20426;-71
2023/01/30 10:37:15;;;;;;;5.43;2.00;;;6.20;99.90;;;;;;4860661;29;20474;-69
2023/01/30 10:40:13;;;;;;;5.03;2.00;;;6.20;99.90;;;;;;4858340;29;20431;-68
2023/01/30 10:43:02;;;;;;;5.20;1.53;;;6.40;99.90;;;;;;4855790;29;20423;-70
2023/01/30 10:45:38;;;;;;;10.03;2.27;;;6.40;99.90;;;;;;4870646;29;20453;-69
2023/01/30 10:48:22;;;;;;;10.03;1.93;;;6.30;99.90;;;;;;4860624;29;20421;-69
2023/01/30 10:50:55;;;;;;;5.43;1.53;;;6.20;99.90;;;;;;4861070;29;20441;-69
2023/01/30 10:53:48;;;;;;;8.10;1.83;;;6.20;99.90;;;;;;4862841;29;20609;-69
2023/01/30 10:56:26;;;;;;;6.50;2.00;;;6.40;99.90;;;;;;4857745;29;20407;-68
2023/01/30 10:58:55;;;;;;;10.60;2.07;;;6.20;99.90;;;;;;4854728;29;20426;-69
2023/01/30 11:01:38;;;;;;;6.13;1.63;;;6.20;99.90;;;;;;4858049;29;20470;-68
2023/01/30 11:04:13;;;;;;;9.27;1.90;;;6.30;99.90;;;;;;4863925;29;20842;-69
2023/01/30 11:06:39;;;;;;;5.73;1.80;;;6.20;99.90;;;;;;4859863;29;20410;-69
2023/01/30 11:09:07;;;;;;;9.23;2.33;;;6.20;99.90;;;;;;4859638;29;20466;-69
2023/01/30 11:11:54;;;;;;;7.73;2.60;;;6.30;99.90;;;;;;4859188;29;20454;-68
2023/01/30 11:14:20;;;;;;;5.17;2.67;;;6.30;99.90;;;;;;4861505;29;20450;-69
2023/01/30 11:16:56;;;;;;;4.47;1.80;;;6.30;99.90;;;;;;4858089;29;20426;-69
2023/01/30 11:19:33;;;;;;;7.63;1.80;;;6.20;99.90;;;;;;4855840;29;20969;-70
2023/01/30 11:22:04;;;;;;;12.97;3.00;;;6.30;99.90;;;;;;4859472;29;20418;-69
2023/01/30 11:24:42;;;;;;;3.47;1.80;;;6.50;99.90;;;;;;4859860;29;20422;-68
2023/01/30 11:27:26;;;;;;;9.50;1.90;;;6.60;99.90;;;;;;4859800;29;20837;-68
2023/01/30 11:30:06;;;;;;;5.30;2.97;;;6.60;99.90;;;;;;4859701;29;20441;-69
2023/01/30 11:32:31;;;;;;;6.07;2.07;;;6.70;99.90;;;;;;4844957;29;20512;-67
2023/01/30 11:35:24;;;;;;;6.00;1.77;;;6.70;99.90;;;;;;4859544;29;20443;-70
2023/01/30 11:37:52;;;;;;;11.20;1.73;;;6.80;99.90;;;;;;4858335;29;20209;-69
2023/01/30 11:40:19;;;;;;;10.33;3.10;;;6.80;99.90;;;;;;4859503;29;20438;-70
2023/01/30 11:42:47;;;;;;;8.00;2.30;;;6.70;99.90;;;;;;4868477;29;20467;-69
2023/01/30 11:45:13;;;;;;;11.83;3.70;;;6.60;99.90;;;;;;4864060;29;20792;-68
2023/01/30 11:47:56;;;;;;;7.53;2.10;;;6.50;99.90;;;;;;4859505;29;20414;-71
2023/01/30 11:50:25;;;;;;;4.87;2.10;;;6.50;99.90;;;;;;4860325;29;20786;-70
2023/01/30 11:52:51;;;;;;;2.70;1.30;;;6.50;99.90;;;;;;4859619;29;20841;-68
2023/01/30 11:55:19;;;;;;;7.10;2.13;;;6.60;99.90;;;;;;4865634;29;20415;-69
2023/01/30 11:57:53;;;;;;;7.50;2.53;;;6.50;99.90;;;;;;4860581;29;20170;-69
2023/01/30 12:00:26;;;;;;;9.40;2.23;;;6.00;99.90;;;;;;4864144;29;20952;-71
2023/01/30 12:02:54;;;;;;;7.30;1.80;;;5.60;99.90;;;;;;4858090;29;20426;-69
2023/01/30 12:05:41;;;;;;;6.40;2.40;;;5.50;99.90;;;;;;4857500;29;20930;-69
2023/01/30 12:08:24;;;;;;;7.67;2.13;;;5.40;99.90;;;;;;4857424;29;20421;-69
2023/01/30 12:10:53;;;;;;;3.47;1.63;;;5.40;99.90;;;;;;4857433;29;20972;-70
2023/01/30 12:13:22;;;;;;;2.50;1.63;;;5.20;99.90;;;;;;4858884;29;20454;-69
2023/01/30 12:15:56;;;;;;;1.73;1.30;;;5.10;99.90;;;;;;4859025;29;20411;-69
2023/01/30 12:18:43;;;;;;;3.13;1.57;;;5.20;99.90;;;;;;4858313;29;20430;-68
2023/01/30 12:21:25;;;;;;;2.87;1.67;;;5.00;99.90;;;;;;4859108;29;20425;-70
2023/01/30 12:24:18;;;;;;;6.20;1.57;;;5.10;99.90;;;;;;4856720;29;20415;-70
2023/01/30 12:26:55;;;;;;;6.93;1.67;;;5.20;99.90;;;;;;4852456;29;20505;-69
2023/01/30 12:29:23;;;;;;;6.50;2.03;;;5.30;99.90;;;;;;4859173;29;20513;-68
2023/01/30 12:32:11;;;;;;;12.13;2.23;;;5.50;99.90;;;;;;4921126;23;20888;-67
2023/01/30 12:34:36;;;;;;;4.00;2.33;;;5.70;99.90;;;;;;4894911;29;20408;-67
2023/01/30 12:37:24;;;;;;;3.30;1.40;;;5.90;99.90;;;;;;4894936;29;20845;-67
2023/01/30 12:40:17;;;;;;;6.40;2.80;;;6.10;99.90;;;;;;4891957;29;20165;-67
2023/01/30 12:42:48;;;;;;;5.50;1.67;;;6.30;99.90;;;;;;4886864;29;20418;-67
2023/01/30 12:45:24;;;;;;;8.87;2.40;;;6.30;99.90;;;;;;4886707;29;20417;-67
2023/01/30 12:48:08;;;;;;;10.20;3.27;;;6.40;99.90;;;;;;4888929;29;20407;-66
2023/01/30 12:51:24;;;;;;;5.23;2.27;;;6.50;99.90;;;;;;4884098;29;20515;-66
2023/01/30 12:54:27;;;;;;;7.43;2.13;;;6.80;99.90;;;;;;4860716;29;20432;-66
2023/01/30 12:56:55;;;;;;;8.90;2.20;;;7.10;99.90;;;;;;4887762;29;20396;-67
2023/01/30 12:59:33;;;;;;;4.17;1.80;;;7.00;99.90;;;;;;4877787;29;20437;-68
2023/01/30 13:02:19;;;;;;;3.00;2.00;;;7.00;99.90;;;;;;4885120;29;20452;-67
2023/01/30 13:05:13;;;;;;;4.57;1.87;;;7.00;99.90;;;;;;4873852;29;20436;-67
2023/01/30 13:07:52;;;;;;;8.07;2.50;;;7.00;99.90;;;;;;4877942;29;20515;-67
2023/01/30 13:10:40;;;;;;;8.77;2.20;;;7.00;99.90;;;;;;4880512;29;20873;-67
2023/01/30 13:13:16;;;;;;;7.60;1.57;;;7.00;99.90;;;;;;4869649;29;20464;-66
2023/01/30 13:16:02;;;;;;;10.23;1.50;;;6.90;99.90;;;;;;4880908;29;20416;-68
2023/01/30 13:18:47;;;;;;;8.17;1.40;;;6.80;99.90;;;;;;4886403;29;20604;-66